createdAt,value
2019-05-15T00:01:28.468Z,44.48
2019-05-15T00:04:00.442Z,44.50
2019-05-15T00:06:32.740Z,44.51
2019-05-15T00:09:07.961Z,44.54
2019-05-15T00:11:39.721Z,44.57
2019-05-15T00:14:12.216Z,44.59
2019-05-15T00:16:44.689Z,44.61
2019-05-15T00:19:18.839Z,44.66
2019-05-15T00:21:50.927Z,44.71
2019-05-15T00:24:23.234Z,44.79
2019-05-15T00:26:56.186Z,44.85
2019-05-15T00:29:28.949Z,44.90
2019-05-15T00:32:04.864Z,44.95
2019-05-15T00:34:37.883Z,45.06
2019-05-15T00:37:11.005Z,45.16
2019-05-15T00:39:43.226Z,45.24
2019-05-15T00:42:15.388Z,45.31
2019-05-15T00:44:49.393Z,45.39
2019-05-15T00:47:21.682Z,45.38
2019-05-15T00:49:54.153Z,45.37
2019-05-15T00:52:28.225Z,45.37
2019-05-15T00:55:00.607Z,45.38
2019-05-15T00:57:32.776Z,45.40
2019-05-15T01:00:08.198Z,45.41
2019-05-15T01:02:40.297Z,45.45
2019-05-15T01:05:13.009Z,45.45
2019-05-15T01:07:45.246Z,45.47
2019-05-15T01:10:19.365Z,45.49
2019-05-15T01:12:51.659Z,45.50
2019-05-15T01:15:24.745Z,45.51
2019-05-15T01:17:58.293Z,45.53
2019-05-15T01:20:31.072Z,45.54
2019-05-15T01:23:03.404Z,45.55
2019-05-15T01:25:35.541Z,45.55
2019-05-15T01:28:09.573Z,45.56
2019-05-15T01:30:41.953Z,45.55
2019-05-15T01:33:14.378Z,45.57
2019-05-15T01:35:48.585Z,45.57
2019-05-15T01:38:20.625Z,45.54
2019-05-15T01:40:52.879Z,45.49
2019-05-15T01:43:25.223Z,45.47
2019-05-15T01:45:58.868Z,45.43
2019-05-15T01:48:31.263Z,45.44
2019-05-15T01:51:03.726Z,45.42
2019-05-15T01:53:38.335Z,45.42
2019-05-15T01:56:10.130Z,45.41
2019-05-15T01:58:42.499Z,45.40
2019-05-15T02:01:14.700Z,45.35
2019-05-15T02:03:49.294Z,45.34
2019-05-15T02:06:21.262Z,45.33
2019-05-15T02:08:53.772Z,45.34
2019-05-15T02:11:25.937Z,45.28
2019-05-15T02:13:58.692Z,45.24
2019-05-15T02:16:31.087Z,45.25
2019-05-15T02:19:03.140Z,45.26
2019-05-15T02:21:35.305Z,45.21
2019-05-15T02:24:08.020Z,45.18
2019-05-15T02:26:40.253Z,45.16
2019-05-15T02:29:14.565Z,45.12
2019-05-15T02:31:50.206Z,45.11
2019-05-15T02:34:20.990Z,45.11
2019-05-15T02:36:53.139Z,45.13
2019-05-15T02:39:28.616Z,45.17
2019-05-15T02:41:59.722Z,45.17
2019-05-15T02:44:32.570Z,45.18
2019-05-15T02:47:04.720Z,45.26
2019-05-15T02:49:39.651Z,45.27
2019-05-15T02:52:11.105Z,45.31
2019-05-15T02:54:43.510Z,45.35
2019-05-15T02:57:18.970Z,45.36
2019-05-15T02:59:50.089Z,45.38
2019-05-15T03:02:22.359Z,45.41
2019-05-15T03:04:55.069Z,45.40
2019-05-15T03:07:29.450Z,45.43
2019-05-15T03:10:01.447Z,45.46
2019-05-15T03:12:33.750Z,45.47
2019-05-15T03:15:09.180Z,45.46
2019-05-15T03:17:41.106Z,45.47
2019-05-15T03:20:14.805Z,45.49
2019-05-15T03:22:49.288Z,45.47
2019-05-15T03:25:20.981Z,45.48
2019-05-15T03:27:53.299Z,45.52
2019-05-15T03:30:25.540Z,45.51
2019-05-15T03:33:07.765Z,45.50
2019-05-15T03:35:33.168Z,45.51
2019-05-15T03:38:09.119Z,45.51
2019-05-15T03:40:40.593Z,45.56
2019-05-15T03:43:12.849Z,45.62
2019-05-15T03:45:49.046Z,45.65
2019-05-15T03:48:19.962Z,45.69
2019-05-15T03:50:53.217Z,45.69
2019-05-15T03:53:25.843Z,45.73
2019-05-15T03:55:59.171Z,45.73
2019-05-15T03:58:31.595Z,45.75
2019-05-15T04:01:04.108Z,45.74
2019-05-15T04:03:38.935Z,45.76
2019-05-15T04:06:10.923Z,45.77
2019-05-15T04:08:43.154Z,45.82
2019-05-15T04:11:15.760Z,45.86
2019-05-15T04:13:49.999Z,45.88
2019-05-15T04:16:22.515Z,45.90
2019-05-15T04:18:54.746Z,45.91
2019-05-15T04:21:30.102Z,45.95
2019-05-15T04:24:02.186Z,45.97
2019-05-15T04:26:39.216Z,46.01
2019-05-15T04:29:10.951Z,46.07
2019-05-15T04:31:55.674Z,46.08
2019-05-15T04:34:19.521Z,46.10
2019-05-15T04:36:51.196Z,46.14
2019-05-15T04:39:23.490Z,46.15
2019-05-15T04:41:58.849Z,46.19
2019-05-15T04:44:30.008Z,46.25
2019-05-15T04:47:02.387Z,46.29
2019-05-15T04:49:34.588Z,46.34
2019-05-15T04:52:10.101Z,46.44
2019-05-15T04:54:41.176Z,46.46
2019-05-15T04:57:13.566Z,46.47
2019-05-15T04:59:49.466Z,46.41
2019-05-15T05:02:26.689Z,46.25
2019-05-15T05:04:54.355Z,46.08
2019-05-15T05:07:29.546Z,45.82
2019-05-15T05:10:01.789Z,45.47
2019-05-15T05:12:34.157Z,45.14
2019-05-15T05:15:08.433Z,44.78
2019-05-15T05:17:40.483Z,44.46
2019-05-15T05:20:12.766Z,44.24
2019-05-15T05:22:45.009Z,44.00
2019-05-15T05:25:18.272Z,43.76
2019-05-15T05:27:50.740Z,43.57
2019-05-15T05:30:23.943Z,43.32
2019-05-15T05:32:57.993Z,43.13
2019-05-15T05:35:30.329Z,42.90
2019-05-15T05:38:02.963Z,42.71
2019-05-15T05:40:38.328Z,42.47
2019-05-15T05:43:09.827Z,42.37
2019-05-15T05:45:42.016Z,42.27
2019-05-15T05:48:14.319Z,42.11
2019-05-15T05:50:49.653Z,41.94
2019-05-15T05:53:21.645Z,41.81
2019-05-15T05:55:53.999Z,41.67
2019-05-15T05:58:26.240Z,41.54
2019-05-15T06:00:58.715Z,41.48
2019-05-15T06:03:30.984Z,41.39
2019-05-15T06:06:03.284Z,41.35
2019-05-15T06:08:35.651Z,41.27
2019-05-15T06:11:09.824Z,41.23
2019-05-15T06:13:41.788Z,41.22
2019-05-15T06:16:14.036Z,41.19
2019-05-15T06:18:46.258Z,41.25
2019-05-15T06:21:18.572Z,41.25
2019-05-15T06:23:55.137Z,41.29
2019-05-15T06:26:24.686Z,41.29
2019-05-15T06:28:58.297Z,41.24
2019-05-15T06:31:34.023Z,41.19
2019-05-15T06:34:08.292Z,41.17
2019-05-15T06:36:40.330Z,41.07
2019-05-15T06:39:12.712Z,41.03
2019-05-15T06:41:44.954Z,40.98
2019-05-15T06:44:18.791Z,40.90
2019-05-15T06:46:51.102Z,40.79
2019-05-15T06:49:23.450Z,40.79
2019-05-15T06:51:58.469Z,40.75
2019-05-15T06:54:31.003Z,40.65
2019-05-15T06:57:03.378Z,40.59
2019-05-15T06:59:39.113Z,40.62
2019-05-15T07:02:11.205Z,40.67
2019-05-15T07:04:43.472Z,40.68
2019-05-15T07:07:18.061Z,40.71
2019-05-15T07:09:49.670Z,40.73
2019-05-15T07:12:22.071Z,40.79
2019-05-15T07:14:54.237Z,40.80
2019-05-15T07:17:28.590Z,40.88
2019-05-15T07:20:00.543Z,40.88
2019-05-15T07:22:32.818Z,40.87
2019-05-15T07:25:05.254Z,40.97
2019-05-15T07:27:38.951Z,41.00
2019-05-15T07:30:12.704Z,41.08
2019-05-15T07:32:45.410Z,41.02
2019-05-15T07:35:19.169Z,41.05
2019-05-15T07:37:51.548Z,41.06
2019-05-15T07:40:24.029Z,41.04
2019-05-15T07:42:58.534Z,40.98
2019-05-15T07:45:30.266Z,40.95
2019-05-15T07:48:02.608Z,40.86
2019-05-15T07:50:38.720Z,40.73
2019-05-15T07:53:10.257Z,40.63
2019-05-15T07:55:42.382Z,40.55
2019-05-15T07:58:14.697Z,40.35
2019-05-15T08:00:49.180Z,40.17
2019-05-15T08:03:20.829Z,39.97
2019-05-15T08:05:59.062Z,39.83
2019-05-15T08:08:28.968Z,39.67
2019-05-15T08:11:14.862Z,39.61
2019-05-15T08:13:34.784Z,39.55
2019-05-15T08:16:08.620Z,39.49
2019-05-15T08:18:41.214Z,39.52
2019-05-15T08:21:13.653Z,39.63
2019-05-15T08:23:48.249Z,39.77
2019-05-15T08:26:20.014Z,39.94
2019-05-15T08:28:52.128Z,40.13
2019-05-15T08:31:24.217Z,40.26
2019-05-15T08:34:12.027Z,40.38
2019-05-15T08:36:31.401Z,40.53
2019-05-15T08:39:05.627Z,40.68
2019-05-15T08:41:39.164Z,40.85
2019-05-15T08:44:11.723Z,40.95
2019-05-15T08:46:44.663Z,41.06
2019-05-15T08:49:20.287Z,41.16
2019-05-15T08:51:54.067Z,41.23
2019-05-15T08:54:29.900Z,41.25
2019-05-15T08:57:02.570Z,41.31
2019-05-15T08:59:34.908Z,41.39
2019-05-15T09:02:07.839Z,41.38
2019-05-15T09:04:40.495Z,41.47
2019-05-15T09:07:12.790Z,41.52
2019-05-15T09:09:45.081Z,41.55
2019-05-15T09:12:18.836Z,41.56
2019-05-15T09:14:51.412Z,41.54
2019-05-15T09:17:23.595Z,41.56
2019-05-15T09:19:56.751Z,41.63
2019-05-15T09:22:29.971Z,41.73
2019-05-15T09:25:02.329Z,41.76
2019-05-15T09:27:34.486Z,41.78
2019-05-15T09:30:08.748Z,41.77
2019-05-15T09:32:41.340Z,41.77
2019-05-15T09:35:18.663Z,41.82
2019-05-15T09:37:51.222Z,41.76
2019-05-15T09:40:37.897Z,41.82
2019-05-15T09:42:57.887Z,41.82
2019-05-15T09:45:30.219Z,41.83
2019-05-15T09:48:02.678Z,41.81
2019-05-15T09:50:34.923Z,41.76
2019-05-15T09:53:09.309Z,41.78
2019-05-15T09:55:41.222Z,41.75
2019-05-15T09:58:13.512Z,41.67
2019-05-15T10:00:50.785Z,41.57
2019-05-15T10:03:19.615Z,41.48
2019-05-15T10:05:52.071Z,41.42
2019-05-15T10:08:25.551Z,41.41
2019-05-15T10:10:59.355Z,41.42
2019-05-15T10:13:31.800Z,41.39
2019-05-15T10:16:04.058Z,41.36
2019-05-15T10:18:38.679Z,41.30
2019-05-15T10:21:10.259Z,41.23
2019-05-15T10:23:42.391Z,41.23
2019-05-15T10:26:14.711Z,41.23
2019-05-15T10:28:49.303Z,41.19
2019-05-15T10:31:21.077Z,41.11
2019-05-15T10:33:53.583Z,41.08
2019-05-15T10:36:27.848Z,41.04
2019-05-15T10:38:59.748Z,40.88
2019-05-15T10:41:32.021Z,40.80
2019-05-15T10:44:04.217Z,40.84
2019-05-15T10:46:38.293Z,40.87
2019-05-15T10:49:10.665Z,40.90
2019-05-15T10:51:43.177Z,40.92
2019-05-15T10:54:15.376Z,40.81
2019-05-15T10:56:47.592Z,40.85
2019-05-15T10:59:19.949Z,40.89
2019-05-15T11:01:52.642Z,40.83
2019-05-15T11:04:25.386Z,40.76
2019-05-15T11:06:58.091Z,40.66
2019-05-15T11:09:30.591Z,40.67
2019-05-15T11:12:02.986Z,40.68
2019-05-15T11:14:37.952Z,40.64
2019-05-15T11:17:09.952Z,40.49
2019-05-15T11:19:42.831Z,40.36
2019-05-15T11:22:15.263Z,40.25
2019-05-15T11:24:50.848Z,40.17
2019-05-15T11:27:21.584Z,40.03
2019-05-15T11:29:54.104Z,39.87
2019-05-15T11:32:29.193Z,39.88
2019-05-15T11:35:04.090Z,39.81
2019-05-15T11:37:34.893Z,39.54
2019-05-15T11:40:11.495Z,39.44
2019-05-15T11:42:44.194Z,39.42
2019-05-15T11:45:18.561Z,39.28
2019-05-15T11:47:51.263Z,39.24
2019-05-15T11:50:23.985Z,39.23
2019-05-15T11:52:58.483Z,39.18
2019-05-15T11:55:30.825Z,39.16
2019-05-15T11:58:03.812Z,39.02
2019-05-15T12:00:38.426Z,38.85
2019-05-15T12:03:10.274Z,38.78
2019-05-15T12:05:42.751Z,38.82
2019-05-15T12:08:15.014Z,38.77
2019-05-15T12:10:47.948Z,38.74
2019-05-15T12:13:20.143Z,38.74
2019-05-15T12:15:52.440Z,38.74
2019-05-15T12:18:24.681Z,38.72
2019-05-15T12:20:59.481Z,38.69
2019-05-15T12:23:30.928Z,38.62
2019-05-15T12:26:03.245Z,38.56
2019-05-15T12:28:35.572Z,38.57
2019-05-15T12:31:08.976Z,38.63
2019-05-15T12:33:41.421Z,38.70
2019-05-15T12:36:13.620Z,38.63
2019-05-15T12:38:50.003Z,38.60
2019-05-15T13:01:51.731Z,38.49
2019-05-15T13:04:23.907Z,38.46
2019-05-15T13:07:12.367Z,38.48
2019-05-15T13:09:30.023Z,38.50
2019-05-15T13:12:02.290Z,38.60
2019-05-15T13:14:34.557Z,38.64
2019-05-15T13:17:06.739Z,38.64
2019-05-15T13:19:39.083Z,38.64
2019-05-15T13:22:17.554Z,38.60
2019-05-15T13:24:45.082Z,38.60
2019-05-15T13:27:18.290Z,38.63
2019-05-15T13:29:50.719Z,38.68
2019-05-15T13:32:22.933Z,38.69
2019-05-15T13:34:55.168Z,38.71
2019-05-15T13:37:30.758Z,38.74
2019-05-15T13:40:01.647Z,38.75
2019-05-15T13:42:33.838Z,38.79
2019-05-15T13:45:12.111Z,38.84
2019-05-15T13:47:40.818Z,38.86
2019-05-15T13:50:13.156Z,38.88
2019-05-15T13:52:45.442Z,38.90
2019-05-15T13:55:24.673Z,38.93
2019-05-15T13:57:51.582Z,38.95
2019-05-15T14:00:24.197Z,39.01
2019-05-15T14:02:58.458Z,39.11
2019-05-15T14:05:30.795Z,39.17
2019-05-15T14:08:02.969Z,39.19
2019-05-15T14:10:35.272Z,39.21
2019-05-15T14:13:07.466Z,39.23
2019-05-15T14:15:39.766Z,39.25
2019-05-15T14:18:14.099Z,39.23
2019-05-15T14:20:45.952Z,39.22
2019-05-15T14:23:18.662Z,39.20
2019-05-15T14:25:51.330Z,39.18
2019-05-15T14:28:23.704Z,39.14
2019-05-15T14:30:58.644Z,39.14
2019-05-15T14:33:30.365Z,39.16
2019-05-15T14:36:02.618Z,39.19
2019-05-15T14:38:34.847Z,39.21
2019-05-15T14:41:08.781Z,39.19
2019-05-15T14:43:41.496Z,39.24
2019-05-15T14:46:14.062Z,39.23
2019-05-15T14:48:49.061Z,39.25
2019-05-15T14:51:21.295Z,39.27
2019-05-15T14:53:53.683Z,39.29
2019-05-15T14:56:26.001Z,39.31
2019-05-15T14:58:58.662Z,39.32
2019-05-15T15:01:30.970Z,39.38
2019-05-15T15:04:03.250Z,39.41
2019-05-15T15:06:35.633Z,39.42
2019-05-15T15:09:09.556Z,39.47
2019-05-15T15:11:41.928Z,39.47
2019-05-15T15:14:14.251Z,39.51
2019-05-15T15:16:48.819Z,39.56
2019-05-15T15:19:20.649Z,39.59
2019-05-15T15:21:52.992Z,39.61
2019-05-15T15:24:25.270Z,39.69
2019-05-15T15:26:58.865Z,39.72
2019-05-15T15:29:31.277Z,39.76
2019-05-15T15:32:03.394Z,39.81
2019-05-15T15:34:35.757Z,39.85
2019-05-15T15:37:08.438Z,39.89
2019-05-15T15:39:40.794Z,39.94
2019-05-15T15:42:13.345Z,39.97
2019-05-15T15:44:45.843Z,40.02
2019-05-15T15:47:18.266Z,40.01
2019-05-15T15:49:50.463Z,40.04
2019-05-15T15:52:22.703Z,40.05
2019-05-15T15:54:55.374Z,40.08
2019-05-15T15:57:28.570Z,40.06
2019-05-15T16:00:01.045Z,40.08
2019-05-15T16:02:33.184Z,40.11
2019-05-15T16:05:05.518Z,40.14
2019-05-15T16:07:39.345Z,40.18
2019-05-15T16:10:12.355Z,40.20
2019-05-15T16:12:44.697Z,40.20
2019-05-15T16:15:18.061Z,40.25
2019-05-15T16:17:50.720Z,40.26
2019-05-15T16:20:23.539Z,40.27
2019-05-15T16:22:56.045Z,40.28
2019-05-15T16:25:28.823Z,40.31
2019-05-15T16:28:01.181Z,40.35
2019-05-15T16:30:47.146Z,40.39
2019-05-15T16:33:09.560Z,40.46
2019-05-15T16:35:41.388Z,40.52
2019-05-15T16:38:13.922Z,40.59
2019-05-15T16:40:46.202Z,40.65
2019-05-15T16:43:20.064Z,40.73
2019-05-15T16:45:52.510Z,40.79
2019-05-15T16:48:24.772Z,40.87
2019-05-15T16:50:58.070Z,40.90
2019-05-15T16:53:30.399Z,40.95
2019-05-15T16:56:02.960Z,40.99
2019-05-15T16:58:35.191Z,41.03
2019-05-15T17:01:07.442Z,41.12
2019-05-15T17:03:39.580Z,41.22
2019-05-15T17:06:11.905Z,41.31
2019-05-15T17:08:44.428Z,41.43
2019-05-15T17:11:16.631Z,41.54
2019-05-15T17:13:48.873Z,41.61
2019-05-15T17:16:21.214Z,41.65
2019-05-15T17:18:53.942Z,41.75
2019-05-15T17:21:28.273Z,41.83
2019-05-15T17:24:00.192Z,41.89
2019-05-15T17:26:32.320Z,41.95
2019-05-15T17:29:04.514Z,42.01
2019-05-15T17:31:37.979Z,42.12
2019-05-15T17:34:10.502Z,42.22
2019-05-15T17:36:43.745Z,42.28
2019-05-15T17:39:15.866Z,42.35
2019-05-15T17:41:48.387Z,42.40
2019-05-15T17:44:20.846Z,42.45
2019-05-15T17:46:53.699Z,42.47
2019-05-15T17:49:27.937Z,42.50
2019-05-15T17:52:00.205Z,42.53
2019-05-15T17:54:32.619Z,42.60
2019-05-15T17:57:05.026Z,42.63
2019-05-15T17:59:37.920Z,42.68
2019-05-15T18:02:10.774Z,42.74
2019-05-15T18:04:43.103Z,42.79
2019-05-15T18:07:15.726Z,42.85
2019-05-15T18:09:53.916Z,42.94
2019-05-15T18:12:22.091Z,43.01
2019-05-15T18:14:54.365Z,43.08
2019-05-15T18:17:26.577Z,43.16
2019-05-15T18:19:58.728Z,43.21
2019-05-15T18:22:31.257Z,43.27
2019-05-15T18:25:03.479Z,43.32
2019-05-15T18:27:38.535Z,43.39
2019-05-15T18:30:10.631Z,43.45
2019-05-15T18:32:43.108Z,43.52
2019-05-15T18:35:18.613Z,43.57
2019-05-15T18:37:50.139Z,43.63
2019-05-15T18:40:22.349Z,43.68
2019-05-15T18:42:54.792Z,43.72
2019-05-15T18:45:28.890Z,43.79
2019-05-15T18:48:02.344Z,43.84
2019-05-15T18:50:34.729Z,43.89
2019-05-15T18:53:08.996Z,43.94
2019-05-15T18:55:41.123Z,43.98
2019-05-15T18:58:13.460Z,44.03
2019-05-15T19:00:45.758Z,44.07
2019-05-15T19:03:22.591Z,44.12
2019-05-15T19:05:53.471Z,44.15
2019-05-15T19:08:27.826Z,44.21
2019-05-15T19:10:59.591Z,44.25
2019-05-15T19:13:32.807Z,44.32
2019-05-15T19:16:05.395Z,44.35
2019-05-15T19:18:38.514Z,44.41
2019-05-15T19:21:11.167Z,44.45
2019-05-15T19:23:43.640Z,44.54
2019-05-15T19:26:18.009Z,44.60
2019-05-15T19:28:49.941Z,44.64
2019-05-15T19:31:27.046Z,44.67
2019-05-15T19:33:56.588Z,44.78
2019-05-15T19:36:29.072Z,44.81
2019-05-15T19:39:03.713Z,44.86
2019-05-15T19:41:38.115Z,44.86
2019-05-15T19:44:15.147Z,44.93
2019-05-15T19:46:47.991Z,45.01
2019-05-15T19:49:20.525Z,45.06
2019-05-15T19:51:52.953Z,45.09
2019-05-15T19:54:25.939Z,45.13
2019-05-15T19:56:58.567Z,45.15
2019-05-15T19:59:31.104Z,45.19
2019-05-15T20:02:03.897Z,45.21
2019-05-15T20:04:38.425Z,45.22
2019-05-15T20:07:10.083Z,45.29
2019-05-15T20:09:42.855Z,45.32
2019-05-15T20:12:15.346Z,45.38
2019-05-15T20:14:48.850Z,45.38
2019-05-15T20:17:21.518Z,45.46
2019-05-15T20:19:53.994Z,45.50
2019-05-15T20:22:28.386Z,45.56
2019-05-15T20:25:00.907Z,45.57
2019-05-15T20:27:33.413Z,45.61
2019-05-15T20:30:08.179Z,45.64
2019-05-15T20:32:39.832Z,45.71
2019-05-15T20:35:12.899Z,45.76
2019-05-15T20:37:45.184Z,45.79
2019-05-15T20:40:19.049Z,45.84
2019-05-15T20:42:51.302Z,45.88
2019-05-15T20:45:23.648Z,45.91
2019-05-15T20:47:58.123Z,45.97
2019-05-15T20:50:30.008Z,46.04
2019-05-15T20:53:02.370Z,46.07
2019-05-15T20:55:34.726Z,46.16
2019-05-15T20:58:08.046Z,46.22
2019-05-15T21:00:41.087Z,46.26
2019-05-15T21:03:13.607Z,46.30
2019-05-15T21:05:46.024Z,46.33
2019-05-15T21:08:18.409Z,46.41
2019-05-15T21:10:50.718Z,46.43
2019-05-15T21:13:22.997Z,46.52
2019-05-15T21:15:55.332Z,46.58
2019-05-15T21:18:28.979Z,46.60
2019-05-15T21:21:01.721Z,46.61
2019-05-15T21:23:34.379Z,46.67
2019-05-15T21:26:07.839Z,46.67
2019-05-15T21:28:41.152Z,46.69
2019-05-15T21:31:13.775Z,46.73
2019-05-15T21:33:48.184Z,46.79
2019-05-15T21:36:20.303Z,46.80
2019-05-15T21:38:52.772Z,46.84
2019-05-15T21:41:25.336Z,46.88
2019-05-15T21:43:59.311Z,46.87
2019-05-15T21:46:31.709Z,46.87
2019-05-15T21:49:04.120Z,46.87
2019-05-15T21:51:38.064Z,46.88
2019-05-15T21:54:10.407Z,46.92
2019-05-15T21:56:43.258Z,46.93
2019-05-15T21:59:15.625Z,46.96
2019-05-15T22:01:49.175Z,46.95
2019-05-15T22:04:22.445Z,46.97
2019-05-15T22:06:54.713Z,47.02
2019-05-15T22:09:29.041Z,47.11
2019-05-15T22:12:02.224Z,47.12
2019-05-15T22:14:34.568Z,47.14
2019-05-15T22:17:09.208Z,47.14
2019-05-15T22:19:41.025Z,47.14
2019-05-15T22:22:13.837Z,47.18
2019-05-15T22:24:48.389Z,47.20
2019-05-15T22:27:21.346Z,47.22
2019-05-15T22:29:54.006Z,47.24
2019-05-15T22:32:29.043Z,47.25
2019-05-15T22:35:09.291Z,47.23
2019-05-15T22:37:34.785Z,47.22
2019-05-15T22:40:08.871Z,47.25
2019-05-15T22:42:41.345Z,47.26
2019-05-15T22:45:18.211Z,47.24
2019-05-15T22:47:49.484Z,47.21
2019-05-15T22:50:21.799Z,47.19
2019-05-15T22:52:54.066Z,47.21
2019-05-15T22:55:28.648Z,47.24
2019-05-15T22:58:00.224Z,47.25
2019-05-15T23:00:32.808Z,47.25
2019-05-15T23:03:05.085Z,47.30
2019-05-15T23:05:37.143Z,47.37
2019-05-15T23:08:09.719Z,47.44
2019-05-15T23:10:42.301Z,47.50
2019-05-15T23:13:14.990Z,47.54
2019-05-15T23:15:47.768Z,47.54
2019-05-15T23:18:22.727Z,47.56
2019-05-15T23:20:55.010Z,47.56
2019-05-15T23:23:28.604Z,47.61
2019-05-15T23:26:01.512Z,47.59
2019-05-15T23:28:34.087Z,47.64
2019-05-15T23:31:08.311Z,47.66
2019-05-15T23:33:40.333Z,47.68
2019-05-15T23:36:12.603Z,47.73
2019-05-15T23:38:44.746Z,47.75
2019-05-15T23:41:18.862Z,47.78
2019-05-15T23:43:51.295Z,47.80
2019-05-15T23:46:23.649Z,47.80
2019-05-15T23:48:55.910Z,47.80
2019-05-15T23:51:28.228Z,47.93
2019-05-15T23:54:00.409Z,47.98
2019-05-15T23:56:32.599Z,48.03
2019-05-15T23:59:04.881Z,48.07
